Liberty of The Seas — C6VQ8 — position and weather

sailwx.info

Track history (hours):
 
Tides and Currents Weather Stations Pressure Air Temp Water Temp Dewpoint Dewpoint Depression Visibility Wind Speed Wind Dir Waves Ship Positions

Liberty of The Seas

Last reported at 2014-Aug-20 19:15 UTC. Time now 2014-Aug-22 13:48 UTC.
Position N 43°39' E 009°41'.

Type: Passenger vessel. MMSI: 309436000.

Date/timePositionNaut miles runAvg speedWind from/ knotsBaromVisibWave heightAir tempDewpointWater temp
2014-Aug-20 19:15N 43°39' E 009°41'1116.3
2014-Aug-20 18:34N 43°49' E 009°48'1514.9
2014-Aug-20 17:33N 44°04' E 009°51'3 2.4
2014-Aug-20 16:29N 44°06' E 009°50'0 0.0
2014-Aug-20 15:29N 44°06' E 009°50'0 0.0
2014-Aug-20 14:32N 44°06' E 009°50'0 0.0
2014-Aug-20 13:32N 44°06' E 009°50'0 0.0
2014-Aug-20 12:32N 44°06' E 009°50'0 0.0
2014-Aug-20 11:32N 44°06' E 009°50'0 0.0
2014-Aug-20 10:32N 44°06' E 009°50'0 0.0
2014-Aug-20 09:32N 44°06' E 009°50'0 0.0
2014-Aug-20 08:32N 44°06' E 009°50'0 0.0
2014-Aug-20 07:32N 44°06' E 009°50'0 0.0
2014-Aug-20 06:32N 44°06' E 009°50'0 0.0
2014-Aug-20 05:32N 44°06' E 009°50'0 0.4
2014-Aug-20 04:33N 44°06' E 009°50'6 6.3
2014-Aug-20 03:33N 44°01' E 009°56'8 8.0
2014-Aug-20 02:33N 43°58' E 009°45'1110.6
2014-Aug-20 01:33N 43°56' E 009°31'1111.2
2014-Aug-20 00:33N 43°54' E 009°15'1211.6
2014-Aug-19 23:33N 43°52' E 008°60'1211.4
2014-Aug-19 22:33N 43°50' E 008°44'1111.3
2014-Aug-19 21:33N 43°48' E 008°29'5111.8
2014-Aug-19 17:16N 43°40' E 007°20'2 2.3
2014-Aug-19 16:32N 43°41' E 007°19'0 0.0
2014-Aug-19 13:26N 43°41' E 007°19'0 0.0
2014-Aug-19 12:20N 43°41' E 007°19'0 0.0
2014-Aug-19 11:14N 43°41' E 007°19'0 0.0
2014-Aug-19 10:14N 43°41' E 007°19'0 0.0
2014-Aug-19 04:31N 43°41' E 007°19'9 9.7
2014-Aug-19 03:33N 43°32' E 007°18'1211.6
2014-Aug-19 02:33N 43°21' E 007°17'1211.7
2014-Aug-19 01:33N 43°12' E 007°06'1211.9
2014-Aug-19 00:33N 43°03' E 006°56'1212.3
2014-Aug-18 23:33N 42°54' E 006°44'2311.5
2014-Aug-18 21:33N 42°45' E 006°15'1312.5
2014-Aug-18 20:32N 42°45' E 005°58'1212.1
2014-Aug-18 19:33N 42°49' E 005°43'1412.1
2014-Aug-18 18:26N 42°56' E 005°27'2312.0
2014-Aug-18 16:33N 43°17' E 005°15'5 4.1
2014-Aug-18 15:21N 43°21' E 005°20'0 0.0
2014-Aug-18 14:27N 43°21' E 005°20'0 0.0
2014-Aug-18 12:09N 43°21' E 005°20'0 0.0
2014-Aug-18 11:12N 43°21' E 005°20'0 0.0
2014-Aug-18 10:33N 43°21' E 005°20'0 0.0
2014-Aug-18 09:27N 43°21' E 005°20'0 0.0
2014-Aug-18 08:27N 43°21' E 005°20'0 0.0
2014-Aug-18 07:33N 43°21' E 005°20'0 0.2
2014-Aug-18 06:33N 43°21' E 005°19'8 8.3
2014-Aug-18 05:33N 43°16' E 005°10'4013.0
2014-Aug-18 02:31N 42°46' E 004°34'1312.8
2014-Aug-18 01:31N 42°36' E 004°23'1212.5
2014-Aug-18 00:33N 42°27' E 004°12'7812.7
2014-Aug-17 18:26N 41°36' E 002°54'1213.0
2014-Aug-17 17:31N 41°30' E 002°40'1313.8
2014-Aug-17 16:33N 41°23' E 002°25'15 1.0
2014-Aug-17 01:28N 41°16' E 002°43'1617.7
2014-Aug-17 00:33N 41°17' E 003°04'1919.1
2014-Aug-16 23:34N 41°16' E 003°30'2019.8
2014-Aug-16 22:33N 41°16' E 003°56'1817.2
2014-Aug-16 21:32N 41°17' E 004°20'  
2014-Aug-13 19:30N 43°39' E 009°41'1516.4
2014-Aug-13 18:34N 43°53' E 009°50'1312.5
2014-Aug-13 17:33N 44°06' E 009°50'1 0.6
2014-Aug-13 16:31N 44°06' E 009°50'0 0.0
2014-Aug-13 15:31N 44°06' E 009°50'0 0.0
2014-Aug-13 14:31N 44°06' E 009°50'0 0.0
2014-Aug-13 13:31N 44°06' E 009°50'0 0.0
2014-Aug-13 12:28N 44°06' E 009°50'0 0.0
2014-Aug-13 11:31N 44°06' E 009°50'0 0.0
2014-Aug-13 10:31N 44°06' E 009°50'0 0.0
2014-Aug-13 09:31N 44°06' E 009°50'0 0.0
2014-Aug-13 08:28N 44°06' E 009°50'0 0.0
2014-Aug-13 07:31N 44°06' E 009°50'0 0.0
2014-Aug-13 06:31N 44°06' E 009°50'0 0.0
2014-Aug-13 05:31N 44°06' E 009°50'0 0.3
2014-Aug-13 04:33N 44°06' E 009°50'8 7.5
2014-Aug-13 03:34N 44°00' E 009°57'1212.0
2014-Aug-13 02:33N 43°57' E 009°40'1312.7
2014-Aug-13 01:33N 43°55' E 009°23'1313.1
2014-Aug-13 00:33N 43°51' E 009°05'1313.4
2014-Aug-12 23:33N 43°46' E 008°48'1413.7
2014-Aug-12 22:33N 43°45' E 008°30'4613.4
2014-Aug-12 19:06N 43°33' E 007°28'712.5
2014-Aug-12 18:33N 43°31' E 007°19'1212.5
2014-Aug-12 17:33N 43°28' E 007°02'4 4.3
2014-Aug-12 16:31N 43°32' E 007°01'0 0.0
2014-Aug-12 15:25N 43°32' E 007°01'0 0.0
2014-Aug-12 14:31N 43°32' E 007°01'0 0.0
2014-Aug-12 12:10N 43°32' E 007°01'0 0.1
2014-Aug-12 04:29N 43°32' E 007°00'9 9.7
2014-Aug-12 03:33N 43°23' E 006°59'1110.4
2014-Aug-12 02:32N 43°13' E 007°00'1010.5
2014-Aug-12 01:32N 43°03' E 006°55'1111.3
2014-Aug-12 00:33N 42°54' E 006°47'1111.1
2014-Aug-11 23:33N 42°46' E 006°35'1111.0
2014-Aug-11 22:33N 42°44' E 006°20'1111.0
2014-Aug-11 21:33N 42°45' E 006°05'1110.7
2014-Aug-11 20:33N 42°47' E 005°51'1110.7
2014-Aug-11 19:33N 42°51' E 005°38'1110.5
2014-Aug-11 18:33N 42°56' E 005°26'2210.8
2014-Aug-11 16:33N 43°17' E 005°15'5 4.6
2014-Aug-11 15:28N 43°21' E 005°20'0 0.0
2014-Aug-11 14:31N 43°21' E 005°20'0 0.0
2014-Aug-11 13:31N 43°21' E 005°20'0 0.0
2014-Aug-11 12:16N 43°21' E 005°20'0 0.0
2014-Aug-11 11:25N 43°21' E 005°20'0 0.0
2014-Aug-11 10:07N 43°21' E 005°20'0 0.0
2014-Aug-11 09:28N 43°21' E 005°20'0 0.0
2014-Aug-11 08:22N 43°21' E 005°20'0 0.1
2014-Aug-11 06:33N 43°21' E 005°20'8 7.9
2014-Aug-11 05:33N 43°16' E 005°11'4112.4
2014-Aug-11 02:16N 42°45' E 004°34'1012.7
2014-Aug-11 01:29N 42°38' E 004°25'1212.7
2014-Aug-11 00:32N 42°29' E 004°14'1313.1
2014-Aug-10 23:31N 42°19' E 004°02'1313.1
2014-Aug-10 22:33N 42°10' E 003°51'1312.8
2014-Aug-10 21:33N 42°00' E 003°39'1312.7
2014-Aug-10 20:33N 41°51' E 003°27'1414.1
2014-Aug-10 19:33N 41°44' E 003°11'  
Track history (hours):
 
Tides and Currents Weather Stations Pressure Air Temp Water Temp Dewpoint Dewpoint Depression Visibility Wind Speed Wind Dir Waves Ship Positions

Liberty of The Seas

Last reported at 2014-Aug-20 19:15 UTC. Time now 2014-Aug-22 13:48 UTC.
Position N 43°39' E 009°41'.

Type: Passenger vessel. MMSI: 309436000.

Date/timePositionNaut miles runAvg speedWind from/ knotsBaromVisibWave heightAir tempDewpointWater temp
2014-Aug-20 19:15N 43°39' E 009°41'1116.3
2014-Aug-20 18:34N 43°49' E 009°48'1514.9
2014-Aug-20 17:33N 44°04' E 009°51'3 2.4
2014-Aug-20 16:29N 44°06' E 009°50'0 0.0
2014-Aug-20 15:29N 44°06' E 009°50'0 0.0
2014-Aug-20 14:32N 44°06' E 009°50'0 0.0
2014-Aug-20 13:32N 44°06' E 009°50'0 0.0
2014-Aug-20 12:32N 44°06' E 009°50'0 0.0
2014-Aug-20 11:32N 44°06' E 009°50'0 0.0
2014-Aug-20 10:32N 44°06' E 009°50'0 0.0
2014-Aug-20 09:32N 44°06' E 009°50'0 0.0
2014-Aug-20 08:32N 44°06' E 009°50'0 0.0
2014-Aug-20 07:32N 44°06' E 009°50'0 0.0
2014-Aug-20 06:32N 44°06' E 009°50'0 0.0
2014-Aug-20 05:32N 44°06' E 009°50'0 0.4
2014-Aug-20 04:33N 44°06' E 009°50'6 6.3
2014-Aug-20 03:33N 44°01' E 009°56'8 8.0
2014-Aug-20 02:33N 43°58' E 009°45'1110.6
2014-Aug-20 01:33N 43°56' E 009°31'1111.2
2014-Aug-20 00:33N 43°54' E 009°15'1211.6
2014-Aug-19 23:33N 43°52' E 008°60'1211.4
2014-Aug-19 22:33N 43°50' E 008°44'1111.3
2014-Aug-19 21:33N 43°48' E 008°29'5111.8
2014-Aug-19 17:16N 43°40' E 007°20'2 2.3
2014-Aug-19 16:32N 43°41' E 007°19'0 0.0
2014-Aug-19 13:26N 43°41' E 007°19'0 0.0
2014-Aug-19 12:20N 43°41' E 007°19'0 0.0
2014-Aug-19 11:14N 43°41' E 007°19'0 0.0
2014-Aug-19 10:14N 43°41' E 007°19'0 0.0
2014-Aug-19 04:31N 43°41' E 007°19'9 9.7
2014-Aug-19 03:33N 43°32' E 007°18'1211.6
2014-Aug-19 02:33N 43°21' E 007°17'1211.7
2014-Aug-19 01:33N 43°12' E 007°06'1211.9
2014-Aug-19 00:33N 43°03' E 006°56'1212.3
2014-Aug-18 23:33N 42°54' E 006°44'2311.5
2014-Aug-18 21:33N 42°45' E 006°15'1312.5
2014-Aug-18 20:32N 42°45' E 005°58'1212.1
2014-Aug-18 19:33N 42°49' E 005°43'1412.1
2014-Aug-18 18:26N 42°56' E 005°27'2312.0
2014-Aug-18 16:33N 43°17' E 005°15'5 4.1
2014-Aug-18 15:21N 43°21' E 005°20'0 0.0
2014-Aug-18 14:27N 43°21' E 005°20'0 0.0
2014-Aug-18 12:09N 43°21' E 005°20'0 0.0
2014-Aug-18 11:12N 43°21' E 005°20'0 0.0
2014-Aug-18 10:33N 43°21' E 005°20'0 0.0
2014-Aug-18 09:27N 43°21' E 005°20'0 0.0
2014-Aug-18 08:27N 43°21' E 005°20'0 0.0
2014-Aug-18 07:33N 43°21' E 005°20'0 0.2
2014-Aug-18 06:33N 43°21' E 005°19'8 8.3
2014-Aug-18 05:33N 43°16' E 005°10'4013.0
2014-Aug-18 02:31N 42°46' E 004°34'1312.8
2014-Aug-18 01:31N 42°36' E 004°23'1212.5
2014-Aug-18 00:33N 42°27' E 004°12'7812.7
2014-Aug-17 18:26N 41°36' E 002°54'1213.0
2014-Aug-17 17:31N 41°30' E 002°40'1313.8
2014-Aug-17 16:33N 41°23' E 002°25'15 1.0
2014-Aug-17 01:28N 41°16' E 002°43'1617.7
2014-Aug-17 00:33N 41°17' E 003°04'1919.1
2014-Aug-16 23:34N 41°16' E 003°30'2019.8
2014-Aug-16 22:33N 41°16' E 003°56'1817.2
2014-Aug-16 21:32N 41°17' E 004°20'  
2014-Aug-13 19:30N 43°39' E 009°41'1516.4
2014-Aug-13 18:34N 43°53' E 009°50'1312.5
2014-Aug-13 17:33N 44°06' E 009°50'1 0.6
2014-Aug-13 16:31N 44°06' E 009°50'0 0.0
2014-Aug-13 15:31N 44°06' E 009°50'0 0.0
2014-Aug-13 14:31N 44°06' E 009°50'0 0.0
2014-Aug-13 13:31N 44°06' E 009°50'0 0.0
2014-Aug-13 12:28N 44°06' E 009°50'0 0.0
2014-Aug-13 11:31N 44°06' E 009°50'0 0.0
2014-Aug-13 10:31N 44°06' E 009°50'0 0.0
2014-Aug-13 09:31N 44°06' E 009°50'0 0.0
2014-Aug-13 08:28N 44°06' E 009°50'0 0.0
2014-Aug-13 07:31N 44°06' E 009°50'0 0.0
2014-Aug-13 06:31N 44°06' E 009°50'0 0.0
2014-Aug-13 05:31N 44°06' E 009°50'0 0.3
2014-Aug-13 04:33N 44°06' E 009°50'8 7.5
2014-Aug-13 03:34N 44°00' E 009°57'1212.0
2014-Aug-13 02:33N 43°57' E 009°40'1312.7
2014-Aug-13 01:33N 43°55' E 009°23'1313.1
2014-Aug-13 00:33N 43°51' E 009°05'1313.4
2014-Aug-12 23:33N 43°46' E 008°48'1413.7
2014-Aug-12 22:33N 43°45' E 008°30'4613.4
2014-Aug-12 19:06N 43°33' E 007°28'712.5
2014-Aug-12 18:33N 43°31' E 007°19'1212.5
2014-Aug-12 17:33N 43°28' E 007°02'4 4.3
2014-Aug-12 16:31N 43°32' E 007°01'0 0.0
2014-Aug-12 15:25N 43°32' E 007°01'0 0.0
2014-Aug-12 14:31N 43°32' E 007°01'0 0.0
2014-Aug-12 12:10N 43°32' E 007°01'0 0.1
2014-Aug-12 04:29N 43°32' E 007°00'9 9.7
2014-Aug-12 03:33N 43°23' E 006°59'1110.4
2014-Aug-12 02:32N 43°13' E 007°00'1010.5
2014-Aug-12 01:32N 43°03' E 006°55'1111.3
2014-Aug-12 00:33N 42°54' E 006°47'1111.1
2014-Aug-11 23:33N 42°46' E 006°35'1111.0
2014-Aug-11 22:33N 42°44' E 006°20'1111.0
2014-Aug-11 21:33N 42°45' E 006°05'1110.7
2014-Aug-11 20:33N 42°47' E 005°51'1110.7
2014-Aug-11 19:33N 42°51' E 005°38'1110.5
2014-Aug-11 18:33N 42°56' E 005°26'2210.8
2014-Aug-11 16:33N 43°17' E 005°15'5 4.6
2014-Aug-11 15:28N 43°21' E 005°20'0 0.0
2014-Aug-11 14:31N 43°21' E 005°20'0 0.0
2014-Aug-11 13:31N 43°21' E 005°20'0 0.0
2014-Aug-11 12:16N 43°21' E 005°20'0 0.0
2014-Aug-11 11:25N 43°21' E 005°20'0 0.0
2014-Aug-11 10:07N 43°21' E 005°20'0 0.0
2014-Aug-11 09:28N 43°21' E 005°20'0 0.0
2014-Aug-11 08:22N 43°21' E 005°20'0 0.1
2014-Aug-11 06:33N 43°21' E 005°20'8 7.9
2014-Aug-11 05:33N 43°16' E 005°11'4112.4
2014-Aug-11 02:16N 42°45' E 004°34'1012.7
2014-Aug-11 01:29N 42°38' E 004°25'1212.7
2014-Aug-11 00:32N 42°29' E 004°14'1313.1
2014-Aug-10 23:31N 42°19' E 004°02'1313.1
2014-Aug-10 22:33N 42°10' E 003°51'1312.8
2014-Aug-10 21:33N 42°00' E 003°39'1312.7
2014-Aug-10 20:33N 41°51' E 003°27'1414.1
2014-Aug-10 19:33N 41°44' E 003°11'  

Dump ship's entire track history